KUKT/UKT METAR and TAF weather

Enter ICAO airport designator
Station Type Date Time Source
KUKT METAR 2021/03/08 11:55 UTC NOAA

KUKT 081155Z AUTO 00000KT 10SM CLR M08/M11 A3046 RMK A01


Station Type Date Time Source
KUKT Decoded METAR 2021/03/08 11:55 UTC NOAA

Quakertown, Quakertown Airport, PA, United States (KUKT) 40-26-06N 075-22-54W
Mar 08, 2021 - 06:55 AM EST / 2021.03.08 1155 UTC
Wind: Calm:0
Visibility: 10 mile(s):0
Sky conditions: clear
Temperature: 17 F (-8 C)
Dew Point: 12 F (-11 C)
Relative Humidity: 78%
Pressure (altimeter): 30.46 in. Hg (1031 hPa)
ob: KUKT 081155Z AUTO 00000KT 10SM CLR M08/M11 A3046 RMK A01
cycle: 12

Station Type Date Time Source
KUKT TAF UTC NOAA

Error!

Example: see airport list